createdAt,value
2018-07-01T00:00:32.764Z,48.97
2018-07-01T00:01:38.701Z,49.14
2018-07-01T00:02:44.742Z,49.07
2018-07-01T00:03:50.756Z,48.62
2018-07-01T00:04:56.718Z,49.32
2018-07-01T00:06:02.689Z,49.18
2018-07-01T00:07:08.702Z,49.08
2018-07-01T00:08:14.655Z,49.29
2018-07-01T00:09:20.673Z,48.99
2018-07-01T00:10:26.614Z,49.23
2018-07-01T00:11:32.578Z,48.80
2018-07-01T00:12:38.794Z,49.77
2018-07-01T00:13:44.851Z,48.83
2018-07-01T00:14:50.848Z,49.01
2018-07-01T00:15:57.067Z,49.37
2018-07-01T00:17:03.039Z,49.23
2018-07-01T00:18:08.999Z,49.22
2018-07-01T00:19:15.314Z,49.08
2018-07-01T00:20:21.327Z,48.91
2018-07-01T00:21:27.275Z,48.91
2018-07-01T00:22:32.861Z,48.94
2018-07-01T00:23:38.787Z,49.48
2018-07-01T00:24:44.883Z,49.44
2018-07-01T00:25:50.908Z,49.57
2018-07-01T00:26:57.831Z,48.83
2018-07-01T00:28:03.775Z,48.91
2018-07-01T00:29:09.766Z,48.96
2018-07-01T00:30:16.012Z,49.36
2018-07-01T00:31:21.991Z,48.93
2018-07-01T00:32:28.069Z,49.60
2018-07-01T00:33:34.082Z,49.87
2018-07-01T00:34:40.268Z,50.03
2018-07-01T00:35:46.334Z,49.46
2018-07-01T00:36:52.444Z,49.72
2018-07-01T00:37:58.733Z,49.90
2018-07-01T00:39:06.894Z,49.58
2018-07-01T00:40:13.230Z,49.84
2018-07-01T00:41:19.835Z,49.72
2018-07-01T00:42:25.915Z,50.22
2018-07-01T00:43:32.259Z,49.81
2018-07-01T00:44:38.390Z,50.41
2018-07-01T00:45:44.328Z,50.04
2018-07-01T00:46:50.291Z,50.53
2018-07-01T00:47:56.306Z,50.49
2018-07-01T00:49:02.578Z,50.36
2018-07-01T00:50:08.561Z,50.60
2018-07-01T00:51:14.551Z,49.95
2018-07-01T00:52:20.502Z,50.47
2018-07-01T00:53:26.126Z,49.96
2018-07-01T00:54:31.998Z,50.63
2018-07-01T00:55:37.966Z,50.82
2018-07-01T00:56:43.928Z,50.23
2018-07-01T00:57:49.870Z,50.94
2018-07-01T00:58:55.927Z,50.14
2018-07-01T01:00:01.928Z,50.43
2018-07-01T01:01:08.062Z,50.55
2018-07-01T01:02:13.986Z,50.70
2018-07-01T01:03:19.974Z,50.36
2018-07-01T01:04:26.358Z,51.18
2018-07-01T01:05:32.989Z,50.54
2018-07-01T01:06:39.062Z,50.60
2018-07-01T01:07:45.083Z,50.95
2018-07-01T01:08:51.024Z,50.31
2018-07-01T01:09:56.776Z,51.26
2018-07-01T01:11:03.021Z,50.55
2018-07-01T01:12:08.958Z,51.11
2018-07-01T01:13:15.246Z,51.10
2018-07-01T01:14:21.221Z,50.86
2018-07-01T01:15:27.207Z,50.38
2018-07-01T01:16:32.981Z,50.72
2018-07-01T01:17:38.851Z,50.99
2018-07-01T01:18:44.843Z,50.23
2018-07-01T01:19:50.815Z,50.27
2018-07-01T01:20:56.790Z,50.42
2018-07-01T01:22:02.755Z,50.25
2018-07-01T01:23:08.778Z,50.71
2018-07-01T01:24:14.814Z,50.96
2018-07-01T01:25:21.198Z,50.50
2018-07-01T01:26:27.179Z,50.50
2018-07-01T01:27:32.853Z,51.09
2018-07-01T01:28:38.744Z,51.05
2018-07-01T01:29:44.920Z,50.70
2018-07-01T01:30:50.950Z,50.56
2018-07-01T01:31:57.428Z,51.03
2018-07-01T01:33:03.843Z,50.76
2018-07-01T01:34:09.847Z,51.20
2018-07-01T01:35:15.882Z,51.67
2018-07-01T01:36:22.154Z,51.43
2018-07-01T01:37:28.229Z,51.04
2018-07-01T01:38:36.260Z,50.98
2018-07-01T01:39:43.493Z,51.31
2018-07-01T01:41:52.657Z,51.17
2018-07-01T01:43:06.706Z,51.67
2018-07-01T01:44:17.791Z,51.88
2018-07-01T01:45:31.166Z,52.00
2018-07-01T01:46:55.466Z,51.87
2018-07-01T01:48:06.249Z,51.69
2018-07-01T01:49:17.139Z,51.64
2018-07-01T01:50:31.279Z,51.46
2018-07-01T01:51:45.438Z,51.58
2018-07-01T01:52:58.424Z,52.15
2018-07-01T01:54:08.494Z,52.23
2018-07-01T01:55:19.650Z,52.15
2018-07-01T01:56:34.966Z,52.12
2018-07-01T01:57:45.096Z,51.88
2018-07-01T01:58:55.859Z,52.24
2018-07-01T02:00:08.840Z,52.20
2018-07-01T02:01:19.445Z,52.38
2018-07-01T02:02:30.520Z,51.71
2018-07-01T02:03:41.838Z,52.01
2018-07-01T02:04:52.982Z,52.26
2018-07-01T02:06:13.078Z,51.92
2018-07-01T02:07:24.206Z,52.48
2018-07-01T02:08:42.128Z,52.42
2018-07-01T02:09:47.789Z,52.31
2018-07-01T02:10:53.734Z,52.79
2018-07-01T02:12:01.190Z,52.27
2018-07-01T02:13:07.449Z,52.54
2018-07-01T02:14:17.638Z,52.61
2018-07-01T02:15:29.177Z,52.22
2018-07-01T02:16:38.222Z,52.74
2018-07-01T02:17:46.580Z,52.47
2018-07-01T02:18:52.302Z,52.32
2018-07-01T02:19:58.576Z,52.99
2018-07-01T02:21:04.237Z,52.50
2018-07-01T02:22:12.566Z,52.74
2018-07-01T02:23:22.178Z,53.30
2018-07-01T02:24:33.163Z,52.57
2018-07-01T02:25:40.117Z,52.70
2018-07-01T02:26:46.140Z,53.13
2018-07-01T02:27:52.122Z,53.20
2018-07-01T02:28:58.232Z,53.42
2018-07-01T02:30:04.679Z,53.37
2018-07-01T02:31:10.678Z,52.92
2018-07-01T02:32:16.670Z,53.05
2018-07-01T02:33:22.365Z,53.55
2018-07-01T02:34:28.221Z,53.08
2018-07-01T02:35:34.996Z,52.87
2018-07-01T02:36:41.167Z,53.57
2018-07-01T02:37:47.102Z,53.13
2018-07-01T02:38:53.221Z,53.49
2018-07-01T02:39:59.201Z,53.37
2018-07-01T02:41:05.079Z,53.86
2018-07-01T02:42:11.118Z,53.76
2018-07-01T02:43:17.351Z,53.55
2018-07-01T02:44:23.346Z,53.72
2018-07-01T02:45:29.342Z,53.83
2018-07-01T02:46:35.302Z,53.37
2018-07-01T02:47:41.330Z,53.60
2018-07-01T02:48:47.283Z,53.77
2018-07-01T02:49:53.285Z,53.83
2018-07-01T02:50:59.956Z,53.97
2018-07-01T02:52:06.291Z,53.24
2018-07-01T02:53:12.243Z,53.25
2018-07-01T02:54:18.211Z,53.22
2018-07-01T02:55:24.194Z,53.61
2018-07-01T02:56:30.180Z,54.15
2018-07-01T02:57:36.123Z,54.01
2018-07-01T02:58:42.527Z,54.19
2018-07-01T02:59:48.544Z,53.36
2018-07-01T03:00:54.488Z,53.64
2018-07-01T03:02:00.492Z,53.88
2018-07-01T03:03:06.154Z,54.14
2018-07-01T03:04:12.044Z,53.47
2018-07-01T03:05:18.092Z,53.38
2018-07-01T03:06:24.185Z,54.01
2018-07-01T03:07:30.528Z,53.99
2018-07-01T03:08:36.469Z,53.69
2018-07-01T03:09:42.228Z,53.55
2018-07-01T03:10:48.171Z,53.57
2018-07-01T03:11:53.773Z,54.34
2018-07-01T03:12:59.753Z,53.91
2018-07-01T03:14:05.946Z,53.88
2018-07-01T03:15:11.898Z,53.55
2018-07-01T03:16:17.904Z,53.55
2018-07-01T03:17:23.828Z,54.32
2018-07-01T03:18:29.828Z,53.93
2018-07-01T03:19:35.755Z,54.35
2018-07-01T03:20:41.699Z,53.89
2018-07-01T03:21:47.670Z,54.33
2018-07-01T03:22:53.629Z,53.68
2018-07-01T03:23:59.781Z,54.04
2018-07-01T03:25:06.140Z,53.77
2018-07-01T03:26:12.083Z,53.73
2018-07-01T03:27:18.035Z,53.96
2018-07-01T03:28:24.028Z,54.41
2018-07-01T03:29:29.976Z,53.77
2018-07-01T03:30:35.927Z,54.48
2018-07-01T03:31:41.867Z,54.07
2018-07-01T03:32:47.855Z,54.34
2018-07-01T03:33:53.823Z,54.40
2018-07-01T03:34:59.787Z,54.39
2018-07-01T03:36:05.806Z,54.66
2018-07-01T03:37:11.800Z,54.33
2018-07-01T03:38:17.735Z,54.02
2018-07-01T03:39:23.721Z,54.22
2018-07-01T03:40:29.675Z,54.43
2018-07-01T03:41:35.623Z,54.69
2018-07-01T03:42:41.563Z,54.49
2018-07-01T03:43:47.525Z,54.96
2018-07-01T03:44:53.653Z,54.57
2018-07-01T03:45:59.639Z,55.09
2018-07-01T03:47:05.632Z,54.58
2018-07-01T03:48:11.588Z,54.31
2018-07-01T03:49:17.531Z,54.37
2018-07-01T03:50:23.485Z,54.63
2018-07-01T03:51:29.636Z,54.97
2018-07-01T03:52:35.579Z,54.63
2018-07-01T03:53:41.830Z,54.72
2018-07-01T03:54:47.801Z,54.68
2018-07-01T03:55:53.775Z,55.27
2018-07-01T03:56:59.777Z,54.75
2018-07-01T03:58:06.263Z,54.68
2018-07-01T03:59:12.223Z,54.96
2018-07-01T04:00:18.668Z,55.24
2018-07-01T04:01:24.633Z,54.74
2018-07-01T04:02:30.841Z,55.34
2018-07-01T04:03:36.853Z,54.94
2018-07-01T04:04:42.992Z,55.20
2018-07-01T04:05:48.785Z,54.84
2018-07-01T04:06:54.767Z,55.36
2018-07-01T04:08:00.731Z,55.03
2018-07-01T04:09:11.048Z,55.18
2018-07-01T04:10:17.062Z,54.56
2018-07-01T04:11:23.047Z,55.38
2018-07-01T04:12:28.985Z,54.80
2018-07-01T04:13:34.966Z,54.80
2018-07-01T04:14:40.896Z,55.17
2018-07-01T04:15:46.834Z,55.33
2018-07-01T04:16:52.839Z,55.40
2018-07-01T04:17:58.799Z,54.73
2018-07-01T04:19:04.791Z,54.81
2018-07-01T04:20:10.746Z,55.00
2018-07-01T04:21:16.691Z,55.30
2018-07-01T04:22:22.281Z,55.07
2018-07-01T04:23:28.119Z,55.33
2018-07-01T04:24:34.533Z,55.62
2018-07-01T04:25:40.312Z,55.50
2018-07-01T04:26:46.220Z,55.28
2018-07-01T04:27:52.138Z,55.16
2018-07-01T04:28:58.121Z,55.59
2018-07-01T04:30:04.380Z,55.77
2018-07-01T04:31:10.754Z,55.98
2018-07-01T04:32:16.978Z,55.78
2018-07-01T04:33:22.583Z,55.75
2018-07-01T04:34:28.603Z,55.91
2018-07-01T04:35:34.618Z,55.60
2018-07-01T04:36:40.597Z,56.23
2018-07-01T04:37:46.519Z,55.99
2018-07-01T04:38:52.539Z,55.71
2018-07-01T04:39:58.491Z,55.64
2018-07-01T04:41:04.147Z,56.14
2018-07-01T04:42:09.990Z,55.47
2018-07-01T04:43:16.339Z,56.25
2018-07-01T04:44:22.221Z,56.12
2018-07-01T04:45:28.098Z,55.42
2018-07-01T04:46:34.084Z,56.02
2018-07-01T04:47:40.027Z,55.85
2018-07-01T04:48:46.267Z,55.80
2018-07-01T04:49:52.230Z,56.19
2018-07-01T04:50:58.183Z,55.56
2018-07-01T04:52:04.514Z,55.88
2018-07-01T04:53:10.209Z,55.48
2018-07-01T04:54:16.236Z,55.52
2018-07-01T04:55:22.298Z,55.68
2018-07-01T04:56:28.342Z,55.84
2018-07-01T04:57:34.404Z,55.90
2018-07-01T04:58:40.135Z,55.64
2018-07-01T04:59:46.145Z,55.39
2018-07-01T05:00:52.143Z,55.21
2018-07-01T05:01:58.242Z,55.75
2018-07-01T05:03:04.422Z,56.04
2018-07-01T05:04:10.563Z,56.04
2018-07-01T05:05:16.523Z,55.78
2018-07-01T05:06:22.470Z,56.18
2018-07-01T05:07:28.459Z,55.64
2018-07-01T05:08:34.461Z,56.10
2018-07-01T05:09:40.567Z,56.40
2018-07-01T05:10:46.450Z,56.28
2018-07-01T05:11:52.306Z,55.84
2018-07-01T05:12:58.635Z,55.83
2018-07-01T05:14:05.876Z,55.98
2018-07-01T05:15:11.874Z,55.41
2018-07-01T05:16:17.876Z,55.75
2018-07-01T05:17:23.828Z,55.76
2018-07-01T05:18:29.775Z,55.69
2018-07-01T05:19:36.399Z,55.09
2018-07-01T05:20:42.367Z,54.71
2018-07-01T05:21:48.408Z,54.83
2018-07-01T05:22:54.441Z,54.93
2018-07-01T05:24:00.780Z,54.64
2018-07-01T05:25:06.823Z,54.17
2018-07-01T05:26:12.830Z,54.29
2018-07-01T05:27:18.799Z,54.04
2018-07-01T05:28:24.737Z,53.11
2018-07-01T05:29:30.659Z,53.04
2018-07-01T05:30:36.699Z,52.64
2018-07-01T05:31:42.694Z,52.41
2018-07-01T05:32:48.757Z,52.06
2018-07-01T05:33:55.104Z,52.38
2018-07-01T05:35:01.705Z,51.58
2018-07-01T05:36:08.581Z,52.29
2018-07-01T05:37:15.495Z,52.05
2018-07-01T05:38:21.889Z,51.78
2018-07-01T05:39:28.225Z,51.08
2018-07-01T05:40:34.744Z,51.32
2018-07-01T05:41:40.709Z,51.20
2018-07-01T05:42:46.671Z,51.06
2018-07-01T05:43:52.694Z,50.41
2018-07-01T05:44:58.975Z,50.46
2018-07-01T05:46:05.628Z,50.83
2018-07-01T05:47:11.629Z,50.23
2018-07-01T05:48:17.334Z,50.40
2018-07-01T05:49:23.284Z,49.69
2018-07-01T05:50:29.341Z,50.31
2018-07-01T05:51:35.463Z,49.95
2018-07-01T05:52:41.498Z,49.86
2018-07-01T05:53:47.461Z,49.00
2018-07-01T05:54:53.414Z,49.19
2018-07-01T05:55:59.413Z,48.12
2018-07-01T05:57:05.898Z,48.45
2018-07-01T05:58:12.223Z,47.69
2018-07-01T05:59:18.169Z,46.07
2018-07-01T06:00:24.112Z,44.40
2018-07-01T06:01:30.086Z,42.74
2018-07-01T06:02:36.386Z,41.78
2018-07-01T06:03:42.736Z,41.37
2018-07-01T06:04:48.721Z,40.82
2018-07-01T06:05:54.894Z,40.21
2018-07-01T06:07:00.868Z,38.77
2018-07-01T06:08:07.202Z,37.00
2018-07-01T06:09:13.733Z,35.65
2018-07-01T06:10:19.847Z,35.59
2018-07-01T06:11:25.804Z,33.78
2018-07-01T06:12:31.776Z,32.67
2018-07-01T06:13:37.829Z,32.02
2018-07-01T06:14:43.797Z,31.65
2018-07-01T06:15:49.818Z,30.57
2018-07-01T06:16:55.771Z,29.49
2018-07-01T06:18:01.779Z,28.70
2018-07-01T06:19:08.303Z,28.52
2018-07-01T06:20:14.401Z,28.16
2018-07-01T06:21:20.716Z,28.14
2018-07-01T06:22:26.674Z,27.00
2018-07-01T06:23:32.982Z,27.54
2018-07-01T06:24:38.996Z,26.61
2018-07-01T06:25:45.123Z,26.77
2018-07-01T06:26:51.090Z,25.82
2018-07-01T06:27:57.050Z,25.56
2018-07-01T06:29:02.729Z,25.50
2018-07-01T06:30:10.021Z,24.96
2018-07-01T06:31:16.007Z,24.74
2018-07-01T06:32:21.982Z,24.58
2018-07-01T06:33:27.928Z,23.49
2018-07-01T06:34:34.081Z,24.11
2018-07-01T06:35:40.411Z,22.97
2018-07-01T06:36:46.383Z,23.23
2018-07-01T06:37:52.159Z,22.35
2018-07-01T06:38:58.531Z,21.94
2018-07-01T06:40:04.825Z,21.62
2018-07-01T06:41:10.742Z,21.65
2018-07-01T06:42:16.691Z,21.40
2018-07-01T06:43:23.013Z,21.32
2018-07-01T06:44:29.492Z,20.50
2018-07-01T06:45:35.802Z,20.31
2018-07-01T06:46:41.759Z,21.39
2018-07-01T06:47:47.719Z,21.79
2018-07-01T06:48:53.642Z,20.89
2018-07-01T06:49:59.634Z,21.46
2018-07-01T06:51:05.837Z,21.79
2018-07-01T06:52:11.831Z,20.91
2018-07-01T06:53:17.896Z,20.88
2018-07-01T06:54:23.836Z,21.66
2018-07-01T06:55:29.766Z,21.09
2018-07-01T06:56:35.684Z,21.42
2018-07-01T06:57:41.651Z,21.49
2018-07-01T06:58:47.594Z,20.37
2018-07-01T06:59:53.531Z,19.94
2018-07-01T07:00:59.470Z,19.09
2018-07-01T07:02:06.151Z,19.84
2018-07-01T07:03:12.085Z,19.48
2018-07-01T07:04:18.158Z,19.74
2018-07-01T07:05:24.119Z,20.63
2018-07-01T07:06:30.182Z,20.35
2018-07-01T07:07:36.206Z,19.49
2018-07-01T07:08:42.154Z,19.07
2018-07-01T07:09:48.140Z,19.35
2018-07-01T07:10:54.075Z,19.05
2018-07-01T07:12:00.273Z,19.22
2018-07-01T07:13:06.387Z,18.63
2018-07-01T07:14:12.562Z,18.37
2018-07-01T07:15:18.607Z,17.78
2018-07-01T07:16:24.554Z,17.92
2018-07-01T07:17:30.811Z,18.13
2018-07-01T07:18:36.784Z,17.43
2018-07-01T07:19:42.715Z,18.55
2018-07-01T07:20:48.723Z,18.48
2018-07-01T07:21:54.983Z,17.99
2018-07-01T07:23:00.945Z,17.10
2018-07-01T07:24:07.246Z,17.65
2018-07-01T07:25:13.517Z,17.24
2018-07-01T07:26:19.223Z,16.91
2018-07-01T07:27:25.077Z,17.61
2018-07-01T07:28:31.025Z,17.12
2018-07-01T07:29:37.003Z,16.98
2018-07-01T07:30:43.052Z,17.44
2018-07-01T07:31:49.074Z,16.57
2018-07-01T07:32:55.037Z,17.05
2018-07-01T07:34:01.000Z,16.68
2018-07-01T07:35:07.175Z,16.29
2018-07-01T07:36:13.144Z,15.78
2018-07-01T07:37:19.140Z,15.84
2018-07-01T07:38:25.150Z,15.84
2018-07-01T07:39:31.147Z,16.50
2018-07-01T07:40:37.159Z,15.93
2018-07-01T07:41:43.315Z,15.37
2018-07-01T07:42:49.333Z,15.52
2018-07-01T07:43:55.544Z,15.03
2018-07-01T07:45:01.655Z,15.05
2018-07-01T07:46:07.816Z,14.89
2018-07-01T07:47:13.802Z,15.77
2018-07-01T07:48:19.795Z,15.72
2018-07-01T07:49:25.706Z,16.26
2018-07-01T07:50:31.667Z,15.84
2018-07-01T07:51:37.638Z,14.97
2018-07-01T07:52:43.846Z,14.78
2018-07-01T07:53:50.485Z,15.01
2018-07-01T07:54:56.214Z,14.50
2018-07-01T07:56:02.062Z,14.34
2018-07-01T07:57:07.913Z,14.23
2018-07-01T07:58:14.293Z,13.98
2018-07-01T07:59:20.274Z,15.02
2018-07-01T08:00:26.326Z,14.46
2018-07-01T08:01:32.755Z,14.45
2018-07-01T08:02:38.753Z,14.62
2018-07-01T08:03:44.738Z,14.68
2018-07-01T08:04:50.748Z,13.79
2018-07-01T08:05:56.801Z,14.32
2018-07-01T08:07:02.556Z,13.37
2018-07-01T08:08:08.740Z,13.31
2018-07-01T08:09:15.144Z,13.26
2018-07-01T08:10:21.271Z,12.77
2018-07-01T08:11:27.390Z,13.40
2018-07-01T08:12:33.414Z,13.21
2018-07-01T08:13:39.378Z,14.22
2018-07-01T08:14:45.338Z,13.51
2018-07-01T08:15:51.419Z,14.09
2018-07-01T08:16:57.660Z,13.45
2018-07-01T08:18:03.640Z,13.45
2018-07-01T08:19:09.636Z,13.76
2018-07-01T08:20:15.238Z,13.48
2018-07-01T08:21:21.435Z,13.94
2018-07-01T08:22:27.696Z,13.30
